createdAt,value
2022-08-10T00:01:52.792Z,2.20
2022-08-10T00:04:24.429Z,2.43
2022-08-10T00:06:55.128Z,2.87
2022-08-10T00:09:23.178Z,3.20
2022-08-10T00:11:49.978Z,2.47
2022-08-10T00:14:17.187Z,2.50
2022-08-10T00:16:43.879Z,2.53
2022-08-10T00:19:10.598Z,2.80
2022-08-10T00:21:37.761Z,2.00
2022-08-10T00:24:04.964Z,2.10
2022-08-10T00:28:02.005Z,2.73
2022-08-10T00:29:18.638Z,2.10
2022-08-10T00:31:55.941Z,2.20
2022-08-10T00:34:29.610Z,2.40
2022-08-10T00:36:57.113Z,2.30
2022-08-10T00:39:24.123Z,2.23
2022-08-10T00:42:01.983Z,2.23
2022-08-10T00:44:39.557Z,2.30
2022-08-10T00:47:07.393Z,2.87
2022-08-10T00:49:48.737Z,2.37
2022-08-10T00:52:17.237Z,2.17
2022-08-10T00:54:44.689Z,2.20
2022-08-10T00:57:16.584Z,2.53
2022-08-10T00:59:58.077Z,2.30
2022-08-10T01:02:30.965Z,1.93
2022-08-10T01:05:01.984Z,2.33
2022-08-10T01:07:50.385Z,2.33
2022-08-10T01:10:38.698Z,2.20
2022-08-10T01:13:36.226Z,2.37
2022-08-10T01:16:06.211Z,2.27
2022-08-10T01:18:42.810Z,2.80
2022-08-10T01:21:29.353Z,2.50
2022-08-10T01:24:30.615Z,2.43
2022-08-10T01:27:12.304Z,2.50
2022-08-10T01:29:53.322Z,2.30
2022-08-10T01:32:29.931Z,1.97
2022-08-10T01:35:05.934Z,2.80
2022-08-10T01:37:37.145Z,2.40
2022-08-10T01:40:06.825Z,3.00
2022-08-10T01:42:36.284Z,2.60
2022-08-10T01:45:05.418Z,2.37
2022-08-10T01:47:56.735Z,2.67
2022-08-10T01:50:31.051Z,2.30
2022-08-10T01:53:17.049Z,2.23
2022-08-10T01:55:45.485Z,2.90
2022-08-10T01:58:15.411Z,2.23
2022-08-10T02:00:45.718Z,2.33
2022-08-10T02:03:14.247Z,2.00
2022-08-10T02:05:44.266Z,2.87
2022-08-10T02:08:14.855Z,2.70
2022-08-10T02:10:43.986Z,2.20
2022-08-10T02:13:12.096Z,3.13
2022-08-10T02:16:01.083Z,2.20
2022-08-10T02:18:30.528Z,1.70
2022-08-10T02:20:59.666Z,2.97
2022-08-10T02:23:31.183Z,2.40
2022-08-10T02:26:00.275Z,2.40
2022-08-10T02:28:31.267Z,2.60
2022-08-10T02:31:06.144Z,2.80
2022-08-10T02:33:37.210Z,2.57
2022-08-10T02:36:07.613Z,3.20
2022-08-10T02:38:58.208Z,3.40
2022-08-10T02:45:02.709Z,2.37
2022-08-10T02:45:23.961Z,2.37
2022-08-10T02:47:58.822Z,3.60
2022-08-10T02:50:38.716Z,2.73
2022-08-10T02:53:54.755Z,2.70
2022-08-10T02:56:05.121Z,2.80
2022-08-10T02:58:34.510Z,2.93
2022-08-10T03:01:06.812Z,2.97
2022-08-10T03:03:43.483Z,2.90
2022-08-10T03:06:15.700Z,2.80
2022-08-10T03:08:45.173Z,2.80
2022-08-10T03:12:35.859Z,2.60
2022-08-10T03:14:10.719Z,2.80
2022-08-10T03:16:39.374Z,2.37
2022-08-10T03:19:07.701Z,2.63
2022-08-10T03:21:55.761Z,2.40
2022-08-10T03:24:32.504Z,2.60
2022-08-10T03:27:01.576Z,2.87
2022-08-10T03:29:28.990Z,2.40
2022-08-10T03:31:56.419Z,2.73
2022-08-10T03:34:33.452Z,2.60
2022-08-10T03:37:00.632Z,3.17
2022-08-10T03:39:27.954Z,2.70
2022-08-10T03:41:58.899Z,2.03
2022-08-10T03:44:29.737Z,2.50
2022-08-10T03:47:01.051Z,2.00
2022-08-10T03:49:30.888Z,2.40
2022-08-10T03:51:59.055Z,2.70
2022-08-10T03:54:27.615Z,3.37
2022-08-10T03:56:54.451Z,3.33
2022-08-10T03:59:21.797Z,2.50
2022-08-10T04:02:46.745Z,3.30
2022-08-10T04:04:37.878Z,3.00
2022-08-10T04:07:05.485Z,2.60
2022-08-10T04:09:54.207Z,3.10
2022-08-10T04:12:21.708Z,2.90
2022-08-10T04:14:51.959Z,2.90
2022-08-10T04:17:59.328Z,2.70
2022-08-10T04:20:20.478Z,2.30
2022-08-10T04:22:50.688Z,2.03
2022-08-10T04:25:18.280Z,2.70
2022-08-10T04:27:46.190Z,2.57
2022-08-10T04:30:13.453Z,2.47
2022-08-10T04:32:41.362Z,2.80
2022-08-10T04:35:10.739Z,2.20
2022-08-10T04:37:47.160Z,2.73
2022-08-10T04:40:29.316Z,2.33
2022-08-10T04:43:01.258Z,2.80
2022-08-10T04:45:47.245Z,2.47
2022-08-10T04:48:42.019Z,2.47
2022-08-10T04:51:03.347Z,2.37
2022-08-10T04:53:30.988Z,2.23
2022-08-10T04:55:57.749Z,2.40
2022-08-10T04:58:24.480Z,2.50
2022-08-10T05:00:51.365Z,2.67
2022-08-10T05:03:18.082Z,2.60
2022-08-10T05:05:44.802Z,2.60
2022-08-10T05:08:11.486Z,2.10
2022-08-10T05:10:38.162Z,2.90
2022-08-10T05:13:04.971Z,2.50
2022-08-10T05:15:31.991Z,2.63
2022-08-10T05:18:08.193Z,2.13
2022-08-10T05:20:38.879Z,2.23
2022-08-10T05:23:05.613Z,2.23
2022-08-10T05:25:32.684Z,2.60
2022-08-10T05:28:06.448Z,2.50
2022-08-10T05:30:34.199Z,1.93
2022-08-10T05:33:04.966Z,2.40
2022-08-10T05:35:55.526Z,2.20
2022-08-10T05:38:25.510Z,2.17
2022-08-10T05:40:52.491Z,2.50
2022-08-10T05:43:22.155Z,2.50
2022-08-10T05:46:18.350Z,2.30
2022-08-10T05:48:54.864Z,2.30
2022-08-10T05:51:26.269Z,2.30
2022-08-10T05:54:02.804Z,2.20
2022-08-10T05:56:53.329Z,2.40
2022-08-10T06:00:11.251Z,2.40
2022-08-10T06:02:33.587Z,1.90
2022-08-10T06:05:10.545Z,1.87
2022-08-10T06:07:40.931Z,2.20
2022-08-10T06:10:11.160Z,2.27
2022-08-10T06:12:53.562Z,2.00
2022-08-10T06:15:51.505Z,2.20
2022-08-10T06:18:11.767Z,2.17
2022-08-10T06:20:38.673Z,2.80
2022-08-10T06:23:06.797Z,2.03
2022-08-10T06:28:22.318Z,2.20
2022-08-10T06:30:51.935Z,1.70
2022-08-10T06:33:21.396Z,2.53
2022-08-10T06:35:53.871Z,2.13
2022-08-10T06:38:24.936Z,1.90
2022-08-10T06:40:57.759Z,2.30
2022-08-10T06:43:26.761Z,2.20
2022-08-10T06:46:07.411Z,2.07
2022-08-10T06:48:46.844Z,2.50
2022-08-10T06:51:20.328Z,1.77
2022-08-10T06:53:53.401Z,1.60
2022-08-10T06:56:36.058Z,2.20
2022-08-10T06:59:21.968Z,1.77
2022-08-10T07:02:18.987Z,1.90
2022-08-10T07:04:52.539Z,1.70
2022-08-10T07:07:22.753Z,2.10
2022-08-10T07:09:51.809Z,2.13
2022-08-10T07:12:20.849Z,2.10
2022-08-10T07:14:48.420Z,2.20
2022-08-10T07:17:19.574Z,2.03
2022-08-10T07:19:49.792Z,2.10
2022-08-10T07:23:00.391Z,1.60
2022-08-10T07:25:08.595Z,1.77
2022-08-10T07:27:39.084Z,1.50
2022-08-10T07:30:28.275Z,1.87
2022-08-10T07:32:55.942Z,1.90
2022-08-10T07:35:24.006Z,1.60
2022-08-10T07:37:53.103Z,2.10
2022-08-10T07:40:21.615Z,1.40
2022-08-10T07:42:53.495Z,2.03
2022-08-10T07:45:20.348Z,1.60
2022-08-10T07:47:55.495Z,1.63
2022-08-10T07:50:24.817Z,1.70
2022-08-10T07:52:55.281Z,1.90
2022-08-10T07:56:01.798Z,1.67
2022-08-10T07:58:11.338Z,1.57
2022-08-10T08:00:39.539Z,1.77
2022-08-10T08:03:09.327Z,1.80
2022-08-10T08:05:58.390Z,1.50
2022-08-10T08:08:24.102Z,1.57
2022-08-10T08:10:51.844Z,1.73
2022-08-10T08:13:22.035Z,1.70
2022-08-10T08:16:19.360Z,2.07
2022-08-10T08:18:39.840Z,1.97
2022-08-10T08:24:07.237Z,1.60
2022-08-10T08:24:30.421Z,1.40
2022-08-10T08:26:52.102Z,1.57
2022-08-10T08:29:20.449Z,1.53
2022-08-10T08:31:54.289Z,1.80
2022-08-10T08:34:39.006Z,1.40
2022-08-10T08:37:08.844Z,1.60
2022-08-10T08:39:37.117Z,1.50
2022-08-10T08:42:10.035Z,1.43
2022-08-10T08:45:11.513Z,1.67
2022-08-10T08:48:10.367Z,1.43
2022-08-10T08:51:01.767Z,1.73
2022-08-10T08:54:03.014Z,1.80
2022-08-10T08:56:48.208Z,1.43
2022-08-10T08:59:19.860Z,1.70
2022-08-10T09:02:05.498Z,1.13
2022-08-10T09:04:46.940Z,1.50
2022-08-10T09:07:59.538Z,0.90
2022-08-10T09:10:45.387Z,1.13
2022-08-10T09:13:29.407Z,1.03
2022-08-10T09:16:00.856Z,1.50
2022-08-10T09:18:52.270Z,1.47
2022-08-10T09:21:36.106Z,1.20
2022-08-10T09:24:44.894Z,1.20
2022-08-10T09:27:20.278Z,1.23
2022-08-10T09:30:06.411Z,1.20
2022-08-10T09:36:15.985Z,1.23
2022-08-10T09:36:20.698Z,1.50
2022-08-10T09:40:12.435Z,1.40
2022-08-10T09:42:18.498Z,1.20
2022-08-10T09:45:02.262Z,1.10
2022-08-10T09:48:04.054Z,1.37
2022-08-10T09:51:16.292Z,1.10
2022-08-10T09:53:56.330Z,1.60
2022-08-10T09:56:48.262Z,1.90
2022-08-10T10:00:01.493Z,1.23
2022-08-10T10:03:11.629Z,1.40
2022-08-10T10:05:51.290Z,1.30
2022-08-10T10:08:21.946Z,1.37
2022-08-10T10:11:04.039Z,1.60
2022-08-10T10:14:03.154Z,1.10
2022-08-10T10:16:52.203Z,1.40
2022-08-10T10:19:38.501Z,1.30
2022-08-10T10:22:26.125Z,1.10
2022-08-10T10:25:02.017Z,1.13
2022-08-10T10:28:14.531Z,1.27
2022-08-10T10:31:35.843Z,1.30
2022-08-10T10:34:22.944Z,1.30
2022-08-10T10:36:54.411Z,1.03
2022-08-10T10:39:24.679Z,1.40
2022-08-10T10:42:04.855Z,1.43
2022-08-10T10:44:55.961Z,1.60
2022-08-10T10:47:47.008Z,1.30
2022-08-10T10:50:36.608Z,1.17
2022-08-10T10:53:16.078Z,1.20
2022-08-10T10:56:13.307Z,1.40
2022-08-10T10:59:00.519Z,1.30
2022-08-10T11:02:09.061Z,1.40
2022-08-10T11:05:01.642Z,1.23
2022-08-10T11:07:40.065Z,1.17
2022-08-10T11:10:33.274Z,1.37
2022-08-10T11:14:27.236Z,1.30
2022-08-10T11:16:26.407Z,1.30
2022-08-10T11:19:03.882Z,1.47
2022-08-10T11:21:59.046Z,1.40
2022-08-10T11:24:49.368Z,1.30
2022-08-10T11:27:39.544Z,1.30
2022-08-10T11:30:18.515Z,1.90
2022-08-10T11:33:01.533Z,1.10
2022-08-10T11:35:48.931Z,1.17
2022-08-10T11:38:52.048Z,1.10
2022-08-10T11:42:07.869Z,1.40
2022-08-10T11:44:51.739Z,1.10
2022-08-10T11:47:50.536Z,1.10
2022-08-10T11:50:26.002Z,1.63
2022-08-10T11:53:15.986Z,1.37
2022-08-10T11:55:45.974Z,1.03
2022-08-10T11:58:32.302Z,1.20
2022-08-10T12:01:06.457Z,0.90
2022-08-10T12:03:36.614Z,1.50
2022-08-10T12:06:06.087Z,1.20
2022-08-10T12:10:03.804Z,1.30
2022-08-10T12:11:29.323Z,1.30
2022-08-10T12:14:21.255Z,1.10
2022-08-10T12:16:52.558Z,1.10
2022-08-10T12:19:58.630Z,1.40
2022-08-10T12:22:24.772Z,1.30
2022-08-10T12:25:01.229Z,1.20
2022-08-10T12:27:30.901Z,1.50
2022-08-10T12:30:04.058Z,1.20
2022-08-10T12:32:56.427Z,1.30
2022-08-10T12:35:32.428Z,1.37
2022-08-10T12:38:30.965Z,1.57
2022-08-10T12:41:44.032Z,1.10
2022-08-10T12:44:11.853Z,1.00
2022-08-10T12:47:01.661Z,1.30
2022-08-10T12:50:23.926Z,1.20
2022-08-10T12:53:20.093Z,1.13
2022-08-10T12:55:49.159Z,1.00
2022-08-10T12:58:57.525Z,1.10
2022-08-10T13:01:16.091Z,1.40
2022-08-10T13:04:21.071Z,1.10
2022-08-10T13:06:41.011Z,1.40
2022-08-10T13:09:08.442Z,1.10
2022-08-10T13:12:35.356Z,1.10
2022-08-10T13:14:36.855Z,1.00
2022-08-10T13:17:07.114Z,1.43
2022-08-10T13:19:41.686Z,1.20
2022-08-10T13:22:27.398Z,1.70
2022-08-10T13:24:58.063Z,1.10
2022-08-10T13:28:03.139Z,1.00
2022-08-10T13:30:33.567Z,0.93
2022-08-10T13:33:04.988Z,1.43
2022-08-10T13:35:33.811Z,1.27
2022-08-10T13:38:03.548Z,1.00
2022-08-10T13:40:32.995Z,1.50
2022-08-10T13:43:01.822Z,1.10
2022-08-10T13:45:29.257Z,1.13
2022-08-10T13:48:14.169Z,1.30
2022-08-10T13:50:42.194Z,1.47
2022-08-10T13:53:15.310Z,1.03
2022-08-10T13:55:55.119Z,1.27
2022-08-10T13:58:30.246Z,1.00
2022-08-10T14:00:59.730Z,1.30
2022-08-10T14:03:28.297Z,1.10
2022-08-10T14:05:58.246Z,1.10
2022-08-10T14:08:32.015Z,1.10
2022-08-10T14:11:12.445Z,1.00
2022-08-10T14:13:54.892Z,1.40
2022-08-10T14:16:22.899Z,1.30
2022-08-10T14:18:52.305Z,0.97
2022-08-10T14:21:19.341Z,1.10
2022-08-10T14:23:53.166Z,1.13
2022-08-10T14:26:30.486Z,1.17
2022-08-10T14:29:19.629Z,1.10
2022-08-10T14:32:01.892Z,1.27
2022-08-10T14:36:15.160Z,1.10
2022-08-10T14:37:37.765Z,1.20
2022-08-10T14:40:15.599Z,1.20
2022-08-10T14:43:05.461Z,1.10
2022-08-10T14:45:36.031Z,1.03
2022-08-10T14:48:14.305Z,1.27
2022-08-10T14:50:55.267Z,1.27
2022-08-10T14:53:26.597Z,0.83
2022-08-10T14:56:02.166Z,2.83
2022-08-10T14:59:06.133Z,1.23
2022-08-10T15:02:01.090Z,1.60
2022-08-10T15:04:26.685Z,0.90
2022-08-10T15:07:12.269Z,1.00
2022-08-10T15:10:00.920Z,1.17
2022-08-10T15:12:34.190Z,1.00
2022-08-10T15:15:04.566Z,1.40
2022-08-10T15:17:39.412Z,1.30
2022-08-10T15:20:27.498Z,1.23
2022-08-10T15:23:00.822Z,0.97
2022-08-10T15:25:29.396Z,1.20
2022-08-10T15:28:06.249Z,1.10
2022-08-10T15:31:02.966Z,1.37
2022-08-10T15:34:05.094Z,1.10
2022-08-10T15:37:02.009Z,1.00
2022-08-10T15:40:25.616Z,1.10
2022-08-10T15:43:05.539Z,0.87
2022-08-10T15:46:15.629Z,1.20
2022-08-10T15:48:47.374Z,0.97
2022-08-10T15:51:33.833Z,1.37
2022-08-10T15:54:18.751Z,1.20
2022-08-10T15:57:13.879Z,1.20
2022-08-10T15:59:44.712Z,1.20
2022-08-10T16:02:17.558Z,1.23
2022-08-10T16:05:08.660Z,1.10
2022-08-10T16:07:46.074Z,1.50
2022-08-10T16:10:25.889Z,1.10
2022-08-10T16:12:59.969Z,1.00
2022-08-10T16:15:29.558Z,1.60
2022-08-10T16:18:04.344Z,1.10
2022-08-10T16:20:53.122Z,1.10
2022-08-10T16:23:45.082Z,1.23
2022-08-10T16:26:50.313Z,1.20
2022-08-10T16:29:21.010Z,1.37
2022-08-10T16:31:58.126Z,1.20
2022-08-10T16:34:27.900Z,1.60
2022-08-10T16:37:01.002Z,1.50
2022-08-10T16:40:00.201Z,1.10
2022-08-10T16:42:24.934Z,1.17
2022-08-10T16:45:11.056Z,1.20
2022-08-10T16:47:52.756Z,0.90
2022-08-10T16:50:42.732Z,1.50
2022-08-10T16:53:14.098Z,1.30
2022-08-10T16:55:50.372Z,1.17
2022-08-10T16:58:35.582Z,0.93
2022-08-10T17:01:06.810Z,1.17
2022-08-10T17:04:07.172Z,1.70
2022-08-10T17:06:44.406Z,1.13
2022-08-10T17:09:19.891Z,0.90
2022-08-10T17:11:51.446Z,1.00
2022-08-10T17:14:25.672Z,1.07
2022-08-10T17:17:02.357Z,1.40
2022-08-10T17:19:34.931Z,1.00
2022-08-10T17:22:07.512Z,1.50
2022-08-10T17:24:40.045Z,1.03
2022-08-10T17:28:05.447Z,1.30
2022-08-10T17:30:04.814Z,1.07
2022-08-10T17:32:44.577Z,1.47
2022-08-10T17:35:21.233Z,1.30
2022-08-10T17:38:09.819Z,1.30
2022-08-10T17:41:07.991Z,1.20
2022-08-10T17:43:46.520Z,1.20
2022-08-10T17:46:26.048Z,1.40
2022-08-10T17:48:54.734Z,1.23
2022-08-10T17:51:25.352Z,1.27
2022-08-10T17:53:58.382Z,1.10
2022-08-10T17:56:25.911Z,1.20
2022-08-10T17:58:57.787Z,1.63
2022-08-10T18:01:40.948Z,1.30
2022-08-10T18:04:18.870Z,1.10
2022-08-10T18:06:56.258Z,1.47
2022-08-10T18:09:40.551Z,1.30
2022-08-10T18:12:19.097Z,1.47
2022-08-10T18:14:50.121Z,1.50
2022-08-10T18:17:37.722Z,1.17
2022-08-10T18:20:08.462Z,1.30
2022-08-10T18:22:42.872Z,1.60
2022-08-10T18:25:22.310Z,1.67
2022-08-10T18:28:01.081Z,1.63
2022-08-10T18:30:36.535Z,1.47
2022-08-10T18:33:09.373Z,1.63
2022-08-10T18:35:37.394Z,1.10
2022-08-10T18:38:06.552Z,1.57
2022-08-10T18:40:36.846Z,1.37
2022-08-10T18:44:07.024Z,1.63
2022-08-10T18:45:57.367Z,1.30
2022-08-10T18:48:33.945Z,1.50
2022-08-10T18:51:05.697Z,1.20
2022-08-10T18:53:47.813Z,1.40
2022-08-10T18:56:20.745Z,1.63
2022-08-10T18:59:02.110Z,1.63
2022-08-10T19:01:58.532Z,1.60
2022-08-10T19:05:31.726Z,1.50
2022-08-10T19:08:31.637Z,1.33
2022-08-10T19:11:23.164Z,1.40
2022-08-10T19:14:20.914Z,1.40
2022-08-10T19:17:16.392Z,1.20
2022-08-10T19:20:03.551Z,1.57
2022-08-10T19:22:51.906Z,1.97
2022-08-10T19:26:17.217Z,1.53
2022-08-10T19:28:30.808Z,1.37
2022-08-10T19:31:18.433Z,1.77
2022-08-10T19:34:15.235Z,1.70
2022-08-10T19:36:58.076Z,1.40
2022-08-10T19:40:09.652Z,1.40
2022-08-10T19:42:48.057Z,1.90
2022-08-10T19:46:01.468Z,1.50
2022-08-10T19:48:25.795Z,2.10
2022-08-10T19:51:03.538Z,1.60
2022-08-10T19:53:36.610Z,1.77
2022-08-10T19:56:35.177Z,1.50
2022-08-10T20:00:17.613Z,1.50
2022-08-10T20:02:19.822Z,1.70
2022-08-10T20:04:58.399Z,1.30
2022-08-10T20:08:06.663Z,1.40
2022-08-10T20:10:54.982Z,1.70
2022-08-10T20:13:29.407Z,2.10
2022-08-10T20:16:07.074Z,1.40
2022-08-10T20:18:37.830Z,1.67
2022-08-10T20:21:21.332Z,1.83
2022-08-10T20:24:00.579Z,1.50
2022-08-10T20:26:32.297Z,1.73
2022-08-10T20:29:16.209Z,1.67
2022-08-10T20:31:56.757Z,1.90
2022-08-10T20:34:27.737Z,2.20
2022-08-10T20:37:04.495Z,2.10
2022-08-10T20:39:47.741Z,1.60
2022-08-10T20:42:34.886Z,1.77
2022-08-10T20:45:07.706Z,1.80
2022-08-10T20:47:42.487Z,2.03
2022-08-10T20:50:58.775Z,1.67
2022-08-10T20:53:28.039Z,1.67
2022-08-10T20:55:54.705Z,1.90
2022-08-10T20:58:36.342Z,1.80
2022-08-10T21:01:17.292Z,1.57
2022-08-10T21:04:11.288Z,1.97
2022-08-10T21:06:58.143Z,2.20
2022-08-10T21:09:38.454Z,1.90
2022-08-10T21:12:36.605Z,2.10
2022-08-10T21:15:22.099Z,2.17
2022-08-10T21:18:09.021Z,2.00
2022-08-10T21:21:17.750Z,2.40
2022-08-10T21:24:07.291Z,2.00
2022-08-10T21:26:48.012Z,1.53
2022-08-10T21:29:40.268Z,2.37
2022-08-10T21:32:19.554Z,2.07
2022-08-10T21:35:37.725Z,2.30
2022-08-10T21:38:22.550Z,2.50
2022-08-10T21:41:18.806Z,1.80
2022-08-10T21:44:33.072Z,1.77
2022-08-10T21:47:42.481Z,2.20
2022-08-10T21:50:42.812Z,2.10
2022-08-10T21:53:45.082Z,1.90
2022-08-10T21:56:39.963Z,1.90
2022-08-10T21:59:39.803Z,1.70
2022-08-10T22:02:31.935Z,1.90
2022-08-10T22:05:21.935Z,2.57
2022-08-10T22:08:12.592Z,2.30
2022-08-10T22:11:08.273Z,2.33
2022-08-10T22:14:00.802Z,2.07
2022-08-10T22:17:01.991Z,2.50
2022-08-10T22:19:54.520Z,2.63
2022-08-10T22:23:18.808Z,2.33
2022-08-10T22:26:07.578Z,2.83
2022-08-10T22:29:09.006Z,2.67
2022-08-10T22:32:31.028Z,2.37
2022-08-10T22:35:50.542Z,2.40
2022-08-10T22:39:14.652Z,2.37
2022-08-10T22:42:58.417Z,2.33
2022-08-10T22:45:48.178Z,2.70
2022-08-10T22:48:33.654Z,2.10
2022-08-10T22:51:21.706Z,2.77
2022-08-10T22:54:30.578Z,2.43
2022-08-10T22:57:19.000Z,2.00
2022-08-10T22:59:46.985Z,2.23
2022-08-10T23:02:30.281Z,2.30
2022-08-10T23:05:05.649Z,1.80
2022-08-10T23:07:35.568Z,1.83
2022-08-10T23:10:14.162Z,2.50
2022-08-10T23:13:11.407Z,1.83
2022-08-10T23:16:13.688Z,2.53
2022-08-10T23:19:08.233Z,2.53
2022-08-10T23:22:05.077Z,2.70
2022-08-10T23:24:41.404Z,1.90
2022-08-10T23:27:38.687Z,1.93
2022-08-10T23:30:10.505Z,2.50
2022-08-10T23:32:47.660Z,2.33
2022-08-10T23:36:29.660Z,2.07
2022-08-10T23:38:05.900Z,2.17
2022-08-10T23:40:34.168Z,2.07
2022-08-10T23:43:02.630Z,2.13
2022-08-10T23:45:52.766Z,1.80
2022-08-10T23:48:21.190Z,2.10
2022-08-10T23:50:57.383Z,2.87
2022-08-10T23:53:34.134Z,2.13
2022-08-10T23:56:12.626Z,1.97
2022-08-10T23:58:43.244Z,2.60
